createdAt,value
2022-11-09T00:00:34.483Z,83.73
2022-11-09T00:02:06.395Z,83.81
2022-11-09T00:03:38.371Z,83.87
2022-11-09T00:05:10.206Z,83.70
2022-11-09T00:06:44.879Z,83.58
2022-11-09T00:08:18.942Z,83.48
2022-11-09T00:09:51.091Z,83.78
2022-11-09T00:11:23.061Z,83.51
2022-11-09T00:12:54.913Z,83.46
2022-11-09T00:14:26.828Z,83.60
2022-11-09T00:15:59.406Z,83.75
2022-11-09T00:17:31.338Z,83.73
2022-11-09T00:19:03.213Z,83.49
2022-11-09T00:20:35.006Z,83.92
2022-11-09T00:22:06.825Z,83.87
2022-11-09T00:23:38.637Z,83.94
2022-11-09T00:25:10.424Z,83.94
2022-11-09T00:26:42.294Z,84.30
2022-11-09T00:28:14.262Z,84.06
2022-11-09T00:29:46.065Z,84.36
2022-11-09T00:31:19.560Z,84.31
2022-11-09T00:32:51.548Z,83.97
2022-11-09T00:34:23.371Z,84.07
2022-11-09T00:35:55.223Z,84.08
2022-11-09T00:37:27.063Z,83.95
2022-11-09T00:38:59.824Z,84.06
2022-11-09T00:40:31.700Z,84.23
2022-11-09T00:42:03.537Z,84.33
2022-11-09T00:43:35.390Z,84.42
2022-11-09T00:45:07.836Z,84.23
2022-11-09T00:46:39.675Z,84.54
2022-11-09T00:48:11.654Z,84.44
2022-11-09T00:49:43.431Z,84.46
2022-11-09T00:51:15.339Z,84.52
2022-11-09T00:52:48.815Z,84.40
2022-11-09T00:54:20.609Z,84.62
2022-11-09T00:56:02.663Z,84.47
2022-11-09T00:57:34.513Z,84.47
2022-11-09T00:59:06.365Z,84.45
2022-11-09T01:00:38.181Z,84.48
2022-11-09T01:02:10.118Z,84.49
2022-11-09T01:03:42.154Z,84.65
2022-11-09T01:05:13.945Z,84.72
2022-11-09T01:06:45.839Z,84.61
2022-11-09T01:08:17.654Z,84.43
2022-11-09T01:09:49.465Z,84.55
2022-11-09T01:11:21.787Z,84.42
2022-11-09T01:12:53.586Z,84.67
2022-11-09T01:14:25.592Z,84.74
2022-11-09T01:15:57.373Z,84.75
2022-11-09T01:17:29.344Z,84.50
2022-11-09T01:19:01.162Z,84.33
2022-11-09T01:20:33.019Z,84.39
2022-11-09T01:22:04.781Z,84.41
2022-11-09T01:23:37.001Z,84.46
2022-11-09T01:25:08.945Z,84.32
2022-11-09T01:26:40.820Z,84.26
2022-11-09T01:28:12.716Z,84.14
2022-11-09T01:29:44.565Z,84.08
2022-11-09T01:31:17.754Z,84.11
2022-11-09T01:32:49.615Z,84.11
2022-11-09T01:34:21.425Z,84.19
2022-11-09T01:35:53.235Z,84.09
2022-11-09T01:37:25.122Z,84.02
2022-11-09T01:38:57.006Z,84.14
2022-11-09T01:40:28.912Z,84.27
2022-11-09T01:42:00.696Z,84.21
2022-11-09T01:43:32.599Z,84.54
2022-11-09T01:45:23.089Z,84.58
2022-11-09T01:46:55.727Z,84.50
2022-11-09T01:48:33.881Z,84.43
2022-11-09T01:50:05.773Z,84.44
2022-11-09T01:51:38.877Z,84.45
2022-11-09T01:53:13.323Z,84.64
2022-11-09T01:54:46.718Z,84.42
2022-11-09T01:56:18.497Z,84.41
2022-11-09T01:58:22.849Z,84.58
2022-11-09T01:59:55.902Z,84.79
2022-11-09T02:01:27.907Z,84.75
2022-11-09T02:03:01.246Z,84.82
2022-11-09T02:04:37.173Z,84.90
2022-11-09T02:06:09.262Z,84.97
2022-11-09T02:07:41.050Z,84.82
2022-11-09T02:09:28.485Z,85.02
2022-11-09T02:11:10.186Z,84.79
2022-11-09T02:12:42.095Z,84.81
2022-11-09T02:14:13.940Z,84.65
2022-11-09T02:15:46.231Z,84.47
2022-11-09T02:17:19.071Z,84.49
2022-11-09T02:18:52.962Z,84.67
2022-11-09T02:20:27.704Z,84.54
2022-11-09T02:21:59.548Z,84.71
2022-11-09T02:23:31.326Z,84.60
2022-11-09T02:25:04.128Z,84.46
2022-11-09T02:26:39.032Z,84.61
2022-11-09T02:28:10.896Z,84.42
2022-11-09T02:29:43.658Z,84.31
2022-11-09T02:31:15.511Z,84.50
2022-11-09T02:34:20.516Z,84.34
2022-11-09T02:35:52.355Z,84.31
2022-11-09T02:37:28.376Z,84.36
2022-11-09T02:39:00.321Z,84.45
2022-11-09T02:40:33.423Z,84.46
2022-11-09T02:42:10.018Z,84.55
2022-11-09T02:43:42.612Z,84.56
2022-11-09T02:45:14.426Z,84.70
2022-11-09T02:46:46.540Z,84.54
2022-11-09T02:48:18.466Z,84.64
2022-11-09T02:49:50.682Z,84.32
2022-11-09T02:51:22.508Z,84.38
2022-11-09T02:52:54.350Z,84.18
2022-11-09T02:54:26.188Z,84.41
2022-11-09T02:55:58.067Z,84.31
2022-11-09T02:57:30.121Z,84.33
2022-11-09T02:59:03.625Z,84.42
2022-11-09T03:00:35.446Z,84.31
2022-11-09T03:02:07.459Z,84.30
2022-11-09T03:03:39.517Z,84.38
2022-11-09T03:05:11.446Z,84.35
2022-11-09T03:06:43.342Z,84.12
2022-11-09T03:08:15.200Z,84.27
2022-11-09T03:09:47.029Z,84.18
2022-11-09T03:11:18.897Z,84.33
2022-11-09T03:12:50.837Z,84.31
2022-11-09T03:14:22.717Z,83.95
2022-11-09T03:15:54.670Z,83.93
2022-11-09T03:17:26.977Z,83.91
2022-11-09T03:18:59.061Z,83.93
2022-11-09T03:20:30.846Z,83.81
2022-11-09T03:22:02.622Z,83.68
2022-11-09T03:25:10.875Z,83.78
2022-11-09T03:26:42.675Z,83.79
2022-11-09T03:28:14.590Z,83.85
2022-11-09T03:29:46.386Z,83.84
2022-11-09T03:31:18.490Z,83.92
2022-11-09T03:32:50.877Z,83.99
2022-11-09T03:34:22.817Z,84.18
2022-11-09T03:35:54.620Z,83.99
2022-11-09T03:37:26.463Z,84.02
2022-11-09T03:38:58.355Z,84.07
2022-11-09T03:40:30.840Z,84.04
2022-11-09T03:42:02.703Z,84.00
2022-11-09T03:43:34.749Z,83.88
2022-11-09T03:45:07.987Z,83.49
2022-11-09T03:46:41.000Z,83.50
2022-11-09T03:48:12.891Z,83.42
2022-11-09T03:49:44.728Z,83.28
2022-11-09T03:51:16.548Z,83.43
2022-11-09T03:52:48.503Z,83.35
2022-11-09T03:54:20.340Z,83.52
2022-11-09T03:55:52.131Z,83.72
2022-11-09T03:57:23.968Z,83.46
2022-11-09T03:58:55.731Z,83.58
2022-11-09T04:00:27.916Z,83.38
2022-11-09T04:01:59.947Z,83.32
2022-11-09T04:03:31.818Z,82.88
2022-11-09T04:05:03.625Z,82.94
2022-11-09T04:06:35.629Z,82.87
2022-11-09T04:08:07.706Z,83.14
2022-11-09T04:09:39.497Z,83.24
2022-11-09T04:11:11.337Z,83.18
2022-11-09T04:12:43.237Z,83.32
2022-11-09T04:14:15.119Z,83.38
2022-11-09T04:15:47.080Z,83.17
2022-11-09T04:17:19.095Z,82.51
2022-11-09T04:18:51.009Z,82.25
2022-11-09T04:20:24.236Z,82.35
2022-11-09T04:21:56.101Z,82.45
2022-11-09T04:23:27.970Z,82.70
2022-11-09T04:24:59.942Z,82.87
2022-11-09T04:26:31.784Z,83.05
2022-11-09T04:28:04.752Z,83.19
2022-11-09T04:29:36.920Z,83.43
2022-11-09T04:31:08.934Z,83.34
2022-11-09T04:32:40.736Z,83.62
2022-11-09T04:34:12.569Z,83.55
2022-11-09T04:35:44.439Z,83.51
2022-11-09T04:38:49.097Z,83.16
2022-11-09T04:40:21.149Z,83.04
2022-11-09T04:41:53.099Z,83.40
2022-11-09T04:43:24.986Z,83.40
2022-11-09T04:44:56.875Z,83.67
2022-11-09T04:46:28.766Z,83.81
2022-11-09T04:48:01.350Z,84.01
2022-11-09T04:49:33.132Z,83.83
2022-11-09T04:51:08.377Z,83.41
2022-11-09T04:52:40.526Z,83.43
2022-11-09T04:54:12.615Z,83.43
2022-11-09T04:55:44.820Z,83.30
2022-11-09T04:57:16.730Z,83.46
2022-11-09T04:58:49.649Z,83.70
2022-11-09T05:00:21.645Z,83.87
2022-11-09T05:01:53.487Z,83.77
2022-11-09T05:03:25.473Z,84.09
2022-11-09T05:04:57.432Z,83.97
2022-11-09T05:06:32.249Z,84.14
2022-11-09T05:08:04.655Z,84.34
2022-11-09T05:09:37.088Z,84.32
2022-11-09T05:11:09.001Z,84.31
2022-11-09T05:12:45.618Z,84.23
2022-11-09T05:14:17.998Z,84.34
2022-11-09T05:15:50.035Z,84.32
2022-11-09T05:17:21.909Z,84.48
2022-11-09T05:18:53.940Z,84.74
2022-11-09T05:20:25.910Z,84.57
2022-11-09T05:22:17.772Z,84.59
2022-11-09T05:24:01.795Z,84.59
2022-11-09T05:25:34.337Z,84.97
2022-11-09T05:27:09.191Z,84.99
2022-11-09T05:28:41.089Z,84.88
2022-11-09T05:30:12.987Z,85.27
2022-11-09T05:31:51.856Z,85.41
2022-11-09T05:33:24.250Z,85.35
2022-11-09T05:34:56.394Z,85.66
2022-11-09T05:36:28.898Z,85.65
2022-11-09T05:38:00.869Z,85.60
2022-11-09T05:39:32.804Z,85.77
2022-11-09T05:41:04.893Z,85.78
2022-11-09T05:42:41.073Z,85.92
2022-11-09T05:44:13.126Z,86.13
2022-11-09T05:45:45.060Z,86.02
2022-11-09T05:47:17.265Z,86.28
2022-11-09T05:48:49.353Z,86.33
2022-11-09T05:50:21.389Z,86.51
2022-11-09T05:51:53.433Z,86.13
2022-11-09T05:53:25.548Z,86.31
2022-11-09T05:54:57.613Z,86.33
2022-11-09T05:56:29.530Z,86.36
2022-11-09T05:58:01.353Z,86.32
2022-11-09T05:59:33.225Z,86.40
2022-11-09T06:01:06.109Z,86.12
2022-11-09T06:02:38.152Z,86.33
2022-11-09T06:04:09.996Z,86.37
2022-11-09T06:05:41.880Z,86.43
2022-11-09T06:07:13.835Z,86.46
2022-11-09T06:08:46.052Z,86.41
2022-11-09T06:10:18.498Z,86.47
2022-11-09T06:11:50.849Z,86.36
2022-11-09T06:13:22.872Z,86.30
2022-11-09T06:14:55.127Z,86.33
2022-11-09T06:16:27.111Z,86.24
2022-11-09T06:17:59.170Z,86.29
2022-11-09T06:19:31.064Z,86.51
2022-11-09T06:21:03.694Z,86.58
2022-11-09T06:22:35.580Z,86.48
2022-11-09T06:24:07.556Z,86.54
2022-11-09T06:25:39.363Z,86.51
2022-11-09T06:27:11.162Z,86.51
2022-11-09T06:28:43.221Z,86.59
2022-11-09T06:30:15.079Z,86.43
2022-11-09T06:31:49.188Z,86.35
2022-11-09T06:33:21.363Z,86.39
2022-11-09T06:34:54.321Z,86.51
2022-11-09T06:36:26.227Z,86.42
2022-11-09T06:38:01.297Z,86.56
2022-11-09T06:39:33.198Z,86.21
2022-11-09T06:41:05.135Z,86.11
2022-11-09T06:42:36.995Z,86.29
2022-11-09T06:44:08.972Z,86.27
2022-11-09T06:45:40.794Z,86.03
2022-11-09T06:47:12.633Z,86.19
2022-11-09T06:48:44.901Z,86.39
2022-11-09T06:50:16.872Z,86.39
2022-11-09T06:51:48.988Z,86.40
2022-11-09T06:53:21.127Z,86.44
2022-11-09T06:54:53.197Z,86.29
2022-11-09T06:56:25.027Z,86.31
2022-11-09T06:57:57.016Z,86.36
2022-11-09T06:59:28.898Z,86.40
2022-11-09T07:01:01.023Z,86.67
2022-11-09T07:02:32.968Z,86.36
2022-11-09T07:04:05.334Z,86.54
2022-11-09T07:05:40.393Z,86.55
2022-11-09T07:07:12.363Z,86.21
2022-11-09T07:08:44.309Z,86.24
2022-11-09T07:10:16.350Z,86.46
2022-11-09T07:11:49.184Z,86.30
2022-11-09T07:13:21.333Z,86.25
2022-11-09T07:14:53.503Z,86.02
2022-11-09T07:16:25.458Z,85.99
2022-11-09T07:17:58.035Z,85.94
2022-11-09T07:19:30.354Z,85.65
2022-11-09T07:21:04.535Z,85.56
2022-11-09T07:22:40.819Z,85.65
2022-11-09T07:24:12.697Z,85.48
2022-11-09T07:25:45.004Z,85.49
2022-11-09T07:27:17.001Z,85.17
2022-11-09T07:28:49.127Z,85.09
2022-11-09T07:30:21.158Z,84.87
2022-11-09T07:31:52.996Z,84.87
2022-11-09T07:33:25.901Z,84.66
2022-11-09T07:34:58.386Z,84.96
2022-11-09T07:36:30.514Z,84.94
2022-11-09T08:18:49.946Z,79.50
2022-11-09T08:20:22.112Z,79.25
2022-11-09T08:21:57.641Z,79.19
2022-11-09T08:23:29.817Z,79.35
2022-11-09T08:25:01.867Z,78.58
2022-11-09T08:26:33.897Z,78.70
2022-11-09T08:28:08.519Z,78.55
2022-11-09T08:29:44.554Z,77.67
2022-11-09T08:31:16.749Z,77.78
2022-11-09T08:32:49.286Z,77.51
2022-11-09T08:34:21.550Z,77.22
2022-11-09T08:35:53.643Z,76.96
2022-11-09T08:37:25.492Z,77.25
2022-11-09T08:38:59.582Z,76.68
2022-11-09T08:40:32.092Z,76.25
2022-11-09T08:42:04.309Z,76.02
2022-11-09T08:43:36.223Z,75.70
2022-11-09T08:45:08.603Z,75.71
2022-11-09T08:46:41.538Z,75.55
2022-11-09T08:48:13.561Z,75.52
2022-11-09T08:49:47.515Z,75.27
2022-11-09T08:51:19.671Z,75.39
2022-11-09T08:52:51.823Z,75.04
2022-11-09T08:54:23.911Z,74.31
2022-11-09T08:55:57.704Z,74.28
2022-11-09T08:57:29.865Z,74.53
2022-11-09T08:59:02.009Z,74.21
2022-11-09T09:00:34.081Z,73.94
2022-11-09T09:02:06.459Z,73.60
2022-11-09T09:03:38.690Z,73.36
2022-11-09T09:05:10.557Z,73.58
2022-11-09T09:06:42.590Z,73.02
2022-11-09T09:08:16.136Z,72.79
2022-11-09T09:09:48.132Z,73.05
2022-11-09T09:11:20.292Z,72.30
2022-11-09T09:12:52.304Z,72.46
2022-11-09T09:14:24.782Z,72.79
2022-11-09T09:15:57.124Z,71.69
2022-11-09T09:17:29.167Z,71.07
2022-11-09T09:19:01.298Z,71.15
2022-11-09T09:20:33.557Z,71.28
2022-11-09T09:22:06.290Z,71.47
2022-11-09T09:23:38.519Z,71.44
2022-11-09T09:25:10.526Z,71.19
2022-11-09T09:26:42.489Z,71.45
2022-11-09T09:28:14.547Z,71.19
2022-11-09T09:29:46.597Z,70.51
2022-11-09T09:31:19.161Z,70.04
2022-11-09T09:32:51.542Z,70.68
2022-11-09T09:34:23.682Z,70.19
2022-11-09T09:35:56.729Z,70.12
2022-11-09T09:37:29.070Z,69.33
2022-11-09T09:39:01.198Z,69.54
2022-11-09T09:40:37.815Z,69.21
2022-11-09T09:42:14.059Z,69.18
2022-11-09T09:43:47.362Z,68.36
2022-11-09T09:45:20.064Z,68.39
2022-11-09T09:46:54.037Z,67.95
2022-11-09T09:48:32.272Z,67.88
2022-11-09T09:50:11.375Z,67.04
2022-11-09T09:51:45.838Z,67.12
2022-11-09T09:53:34.814Z,66.99
2022-11-09T09:55:26.104Z,66.32
2022-11-09T09:56:59.272Z,65.55
2022-11-09T09:58:32.264Z,65.29
2022-11-09T10:00:06.601Z,65.69
2022-11-09T10:01:40.079Z,65.91
2022-11-09T10:03:16.608Z,65.43
2022-11-09T10:04:48.607Z,65.64
2022-11-09T10:06:20.543Z,64.74
2022-11-09T10:08:15.739Z,64.48
2022-11-09T10:09:47.626Z,63.59
2022-11-09T10:11:33.687Z,63.98
2022-11-09T10:13:11.251Z,64.55
2022-11-09T10:14:53.665Z,64.32
2022-11-09T10:16:34.501Z,63.98
2022-11-09T10:18:06.797Z,62.46
2022-11-09T10:19:39.073Z,62.61
2022-11-09T10:21:23.349Z,62.82
2022-11-09T10:24:27.036Z,62.37
2022-11-09T10:26:10.042Z,62.56
2022-11-09T10:27:58.146Z,62.28
2022-11-09T10:29:37.123Z,61.76
2022-11-09T10:31:19.591Z,62.22
2022-11-09T10:32:52.577Z,60.98
2022-11-09T10:34:27.443Z,60.32
2022-11-09T10:36:03.834Z,60.12
2022-11-09T10:37:40.836Z,61.72
2022-11-09T10:39:13.246Z,61.16
2022-11-09T10:40:56.263Z,60.68
2022-11-09T10:42:28.357Z,61.12
2022-11-09T10:44:00.539Z,60.15
2022-11-09T10:45:33.913Z,60.62
2022-11-09T10:47:13.568Z,61.06
2022-11-09T10:48:45.741Z,61.07
2022-11-09T10:50:32.688Z,60.67
2022-11-09T10:53:36.731Z,60.80
2022-11-09T10:55:17.859Z,61.68
2022-11-09T10:57:12.735Z,60.30
2022-11-09T10:58:48.665Z,61.00
2022-11-09T11:00:21.567Z,60.78
2022-11-09T11:01:56.990Z,61.33
2022-11-09T11:03:37.560Z,61.07
2022-11-09T11:05:10.067Z,60.55
2022-11-09T11:06:42.276Z,60.30
2022-11-09T11:08:40.553Z,60.88
2022-11-09T11:10:18.259Z,60.51
2022-11-09T11:11:50.320Z,59.33
2022-11-09T11:13:22.828Z,60.06
2022-11-09T11:14:54.863Z,59.57
2022-11-09T11:16:33.077Z,58.88
2022-11-09T11:18:06.031Z,58.48
2022-11-09T11:19:39.232Z,58.22
2022-11-09T11:22:44.154Z,58.14
2022-11-09T11:24:20.210Z,57.83
2022-11-09T11:25:57.544Z,57.51
2022-11-09T11:27:29.443Z,57.45
2022-11-09T11:29:12.113Z,56.77
2022-11-09T11:30:44.151Z,57.08
2022-11-09T11:32:17.349Z,57.10
2022-11-09T11:33:49.915Z,56.63
2022-11-09T11:35:22.000Z,56.09
2022-11-09T11:37:04.277Z,55.04
2022-11-09T11:38:44.451Z,54.14
2022-11-09T11:40:17.518Z,54.79
2022-11-09T11:42:04.663Z,54.71
2022-11-09T11:43:42.807Z,54.39
2022-11-09T11:45:39.688Z,53.60
2022-11-09T11:47:21.135Z,53.62
2022-11-09T11:48:53.095Z,54.22
2022-11-09T11:50:43.862Z,53.89
2022-11-09T11:52:18.471Z,53.93
2022-11-09T11:54:02.568Z,54.07
2022-11-09T11:57:20.718Z,53.55
2022-11-09T11:58:56.969Z,53.75
2022-11-09T12:00:29.077Z,53.07
2022-11-09T12:02:04.095Z,52.65
2022-11-09T12:03:39.440Z,51.54
2022-11-09T12:05:20.826Z,51.32
2022-11-09T12:06:52.856Z,50.77
2022-11-09T12:08:32.043Z,51.35
2022-11-09T12:10:19.370Z,52.20
2022-11-09T12:11:58.655Z,51.86
2022-11-09T12:13:47.010Z,51.37
2022-11-09T12:15:40.285Z,51.13
2022-11-09T12:17:18.920Z,51.32
2022-11-09T12:18:57.715Z,51.29
2022-11-09T12:20:48.549Z,51.06
2022-11-09T12:22:25.411Z,51.44
2022-11-09T12:24:13.903Z,49.22
2022-11-09T12:25:45.769Z,48.80
2022-11-09T12:27:36.672Z,48.86
2022-11-09T12:29:18.096Z,49.74
2022-11-09T12:32:29.285Z,49.25
2022-11-09T12:34:07.114Z,49.10
2022-11-09T12:35:41.377Z,48.45
2022-11-09T12:37:35.887Z,48.88
2022-11-09T12:39:26.532Z,49.92
2022-11-09T12:41:05.765Z,48.87
2022-11-09T12:42:39.889Z,48.67
2022-11-09T12:44:20.360Z,49.71
2022-11-09T12:45:52.780Z,49.41
2022-11-09T12:47:27.769Z,49.00
2022-11-09T12:49:00.454Z,48.46
2022-11-09T12:50:32.765Z,47.89
2022-11-09T12:52:06.064Z,48.56
2022-11-09T12:53:38.757Z,48.49
2022-11-09T12:55:17.979Z,48.41
2022-11-09T12:56:55.110Z,48.69
2022-11-09T12:58:30.289Z,49.59
2022-11-09T13:01:40.136Z,49.33
2022-11-09T13:03:23.240Z,50.34
2022-11-09T13:04:59.774Z,50.02
2022-11-09T14:00:23.670Z,50.39
2022-11-09T14:01:57.284Z,50.48
2022-11-09T14:03:29.759Z,50.80
2022-11-09T14:05:02.212Z,50.41
2022-11-09T14:06:34.271Z,50.25
2022-11-09T14:08:06.281Z,49.71
2022-11-09T14:09:58.421Z,50.59
2022-11-09T14:11:34.108Z,50.53
2022-11-09T14:13:08.779Z,50.67
2022-11-09T14:14:45.743Z,51.32
2022-11-09T14:16:33.447Z,50.89
2022-11-09T14:18:15.317Z,51.09
2022-11-09T14:19:50.841Z,50.86
2022-11-09T14:21:26.990Z,51.04
2022-11-09T14:22:58.947Z,50.86
2022-11-09T14:24:33.151Z,51.38
2022-11-09T14:26:16.434Z,51.61
2022-11-09T14:27:57.605Z,52.11
2022-11-09T14:29:33.423Z,51.88
2022-11-09T14:31:05.698Z,52.38
2022-11-09T14:32:37.804Z,52.85
2022-11-09T14:34:13.395Z,53.15
2022-11-09T14:35:45.457Z,53.19
2022-11-09T14:37:17.703Z,52.83
2022-11-09T14:38:49.722Z,52.95
2022-11-09T14:40:32.078Z,52.76
2022-11-09T14:42:04.986Z,53.10
2022-11-09T14:43:41.379Z,52.97
2022-11-09T14:45:14.808Z,53.30
2022-11-09T14:46:47.057Z,53.45
2022-11-09T14:48:20.214Z,53.24
2022-11-09T14:49:52.558Z,53.69
2022-11-09T14:51:26.925Z,53.49
2022-11-09T14:52:59.014Z,53.67
2022-11-09T14:54:31.221Z,53.84
2022-11-09T14:56:04.879Z,53.73
2022-11-09T14:57:37.033Z,53.76
2022-11-09T14:59:11.536Z,54.15
2022-11-09T15:00:46.183Z,54.53
2022-11-09T15:02:19.050Z,54.69
2022-11-09T15:04:09.355Z,54.62
2022-11-09T15:05:41.570Z,55.04
2022-11-09T15:07:14.632Z,55.30
2022-11-09T15:09:06.843Z,55.09
2022-11-09T15:10:38.873Z,55.61
2022-11-09T15:12:17.694Z,55.70
2022-11-09T15:13:49.723Z,55.76
2022-11-09T15:15:23.663Z,56.00
2022-11-09T15:17:08.280Z,56.06
2022-11-09T15:18:42.859Z,55.92
2022-11-09T15:20:14.794Z,56.63
2022-11-09T15:21:46.721Z,56.62
2022-11-09T15:23:38.259Z,56.79
2022-11-09T15:25:30.841Z,56.87
2022-11-09T15:28:47.849Z,57.34
2022-11-09T15:30:33.613Z,57.59
2022-11-09T15:32:11.331Z,57.83
2022-11-09T15:33:48.222Z,57.77
2022-11-09T15:35:20.518Z,57.79
2022-11-09T15:36:58.380Z,57.84
2022-11-09T15:38:30.635Z,57.83
2022-11-09T15:40:02.701Z,58.02
2022-11-09T15:41:34.992Z,58.20
2022-11-09T15:43:07.266Z,58.42
2022-11-09T15:44:39.617Z,58.59
2022-11-09T15:46:15.360Z,58.70
2022-11-09T15:47:54.577Z,58.98
2022-11-09T15:49:27.526Z,59.07
2022-11-09T15:50:59.602Z,59.13
2022-11-09T15:52:31.847Z,59.26
2022-11-09T15:54:03.933Z,59.34
2022-11-09T15:55:35.978Z,59.39
2022-11-09T15:57:08.177Z,59.44
2022-11-09T15:58:40.170Z,59.82
2022-11-09T16:00:17.862Z,59.84
2022-11-09T16:01:53.602Z,60.27
2022-11-09T16:03:25.607Z,60.37
2022-11-09T16:04:57.760Z,60.58
2022-11-09T16:06:30.398Z,60.97
2022-11-09T16:08:03.034Z,61.18
2022-11-09T16:09:35.095Z,60.96
2022-11-09T16:11:08.181Z,61.06
2022-11-09T16:12:45.187Z,62.01
2022-11-09T16:14:20.562Z,62.23
2022-11-09T16:15:52.429Z,62.31
2022-11-09T16:17:24.425Z,62.24
2022-11-09T16:18:57.265Z,62.58
2022-11-09T16:20:29.530Z,62.58
2022-11-09T16:22:03.128Z,62.59
2022-11-09T16:23:35.885Z,62.60
2022-11-09T16:25:08.109Z,63.26
2022-11-09T16:26:40.164Z,63.22
2022-11-09T16:28:12.116Z,63.70
2022-11-09T16:29:44.063Z,63.59
2022-11-09T16:31:19.044Z,63.63
2022-11-09T16:32:51.277Z,63.99
2022-11-09T16:34:23.488Z,64.00
2022-11-09T16:35:56.212Z,64.37
2022-11-09T16:37:29.625Z,64.54
2022-11-09T16:39:05.216Z,64.40
2022-11-09T16:40:38.107Z,64.58
2022-11-09T16:42:11.130Z,64.77
2022-11-09T16:43:43.625Z,64.76
2022-11-09T16:45:16.174Z,64.86
2022-11-09T16:46:49.975Z,65.43
2022-11-09T16:48:22.169Z,65.65
2022-11-09T16:49:54.314Z,65.45
2022-11-09T16:51:26.320Z,65.88
2022-11-09T16:52:58.468Z,66.13
2022-11-09T16:54:30.661Z,66.25
2022-11-09T16:56:02.652Z,66.35
2022-11-09T16:57:34.715Z,66.38
2022-11-09T16:59:06.707Z,66.80
2022-11-09T17:01:04.018Z,66.65
2022-11-09T17:02:31.401Z,66.92
2022-11-09T17:04:03.536Z,67.06
2022-11-09T17:05:35.668Z,66.94
2022-11-09T17:07:09.855Z,67.52
2022-11-09T17:08:42.137Z,67.34
2022-11-09T17:10:14.144Z,67.48
2022-11-09T17:11:46.011Z,67.63
2022-11-09T17:13:18.053Z,67.74
2022-11-09T17:14:50.052Z,68.08
2022-11-09T17:16:22.160Z,68.25
2022-11-09T17:19:31.717Z,68.25
2022-11-09T17:21:04.327Z,68.49
2022-11-09T17:22:36.619Z,68.30
2022-11-09T17:24:10.339Z,68.42
2022-11-09T17:25:42.320Z,68.35
2022-11-09T17:27:14.333Z,68.37
2022-11-09T17:28:47.427Z,68.55
2022-11-09T17:30:19.597Z,68.52
2022-11-09T17:31:51.758Z,68.32
2022-11-09T17:33:25.276Z,68.56
2022-11-09T17:34:57.126Z,68.78
2022-11-09T17:36:49.217Z,69.42
2022-11-09T17:38:21.778Z,69.77
2022-11-09T17:39:54.228Z,70.01
2022-11-09T17:41:26.341Z,70.12
2022-11-09T17:43:00.135Z,70.23
2022-11-09T17:44:32.197Z,70.58
2022-11-09T17:46:08.028Z,70.58
2022-11-09T17:47:40.017Z,70.80
2022-11-09T17:49:12.107Z,70.58
2022-11-09T17:50:44.290Z,70.78
2022-11-09T17:52:16.165Z,70.62
2022-11-09T17:53:48.064Z,70.88
2022-11-09T17:55:20.094Z,70.82
2022-11-09T17:56:52.085Z,70.68
2022-11-09T17:58:25.083Z,70.80
2022-11-09T17:59:57.170Z,71.10
2022-11-09T18:01:30.447Z,70.86
2022-11-09T18:03:02.941Z,71.17
2022-11-09T18:04:34.887Z,71.38
2022-11-09T18:06:10.826Z,71.30
2022-11-09T18:07:42.741Z,71.26
2022-11-09T18:11:07.380Z,71.51
2022-11-09T18:12:39.353Z,71.62
2022-11-09T18:14:11.533Z,71.76
2022-11-09T18:15:43.607Z,71.86
2022-11-09T18:18:48.438Z,72.07
2022-11-09T18:20:20.304Z,72.16
2022-11-09T18:21:52.307Z,72.35
2022-11-09T18:23:25.107Z,72.44
2022-11-09T18:24:57.001Z,72.59
2022-11-09T18:26:28.951Z,72.76
2022-11-09T18:28:01.084Z,72.87
2022-11-09T18:29:33.101Z,72.72
2022-11-09T18:31:06.427Z,72.84
2022-11-09T18:32:38.574Z,72.88
2022-11-09T18:34:11.039Z,72.76
2022-11-09T18:35:43.215Z,73.01
2022-11-09T18:37:15.312Z,72.99
2022-11-09T18:38:47.450Z,73.14
2022-11-09T18:40:19.343Z,73.35
2022-11-09T18:41:52.575Z,73.77
2022-11-09T18:43:25.102Z,73.69
2022-11-09T18:44:57.022Z,73.81
2022-11-09T18:48:09.609Z,73.77
2022-11-09T18:49:41.494Z,73.81
2022-11-09T18:51:13.440Z,73.78
2022-11-09T18:52:45.509Z,73.91
2022-11-09T18:54:17.511Z,73.77
2022-11-09T18:55:49.654Z,74.05
2022-11-09T18:57:21.633Z,74.33
2022-11-09T18:58:55.101Z,74.16
2022-11-09T19:00:27.261Z,74.25
2022-11-09T19:01:59.210Z,74.12
2022-11-09T19:03:31.252Z,74.31
2022-11-09T19:05:03.447Z,74.33
2022-11-09T19:06:35.577Z,74.44
2022-11-09T19:08:07.553Z,74.14
2022-11-09T19:09:39.625Z,74.05
2022-11-09T19:11:12.244Z,74.18
2022-11-09T19:12:44.109Z,74.29
2022-11-09T19:14:16.034Z,74.15
2022-11-09T19:17:34.008Z,74.38
2022-11-09T19:19:06.077Z,74.67
2022-11-09T19:20:38.851Z,74.55
2022-11-09T19:22:17.140Z,74.68
2022-11-09T19:23:49.132Z,74.68
2022-11-09T19:25:21.034Z,74.88
2022-11-09T19:26:54.995Z,74.99
2022-11-09T19:28:26.867Z,75.08
2022-11-09T19:29:58.828Z,74.75
2022-11-09T19:31:30.805Z,75.04
2022-11-09T19:33:03.940Z,75.31
2022-11-09T19:34:35.909Z,75.40
2022-11-09T19:36:29.294Z,75.43
2022-11-09T19:38:05.144Z,75.23
2022-11-09T19:39:42.837Z,75.45
2022-11-09T19:41:15.476Z,75.62
2022-11-09T19:42:47.407Z,75.60
2022-11-09T19:44:19.330Z,75.38
2022-11-09T19:45:51.245Z,75.40
2022-11-09T19:47:23.089Z,75.41
2022-11-09T19:48:55.037Z,75.63
2022-11-09T19:50:40.615Z,76.17
2022-11-09T19:52:12.977Z,76.43
2022-11-09T19:53:51.408Z,76.18
2022-11-09T19:55:23.270Z,76.38
2022-11-09T19:56:55.207Z,76.25
2022-11-09T19:58:27.389Z,75.99
2022-11-09T19:59:59.380Z,76.02
2022-11-09T20:01:31.327Z,75.79
2022-11-09T20:03:03.291Z,76.01
2022-11-09T20:04:35.269Z,76.07
2022-11-09T20:06:07.451Z,75.79
2022-11-09T20:07:39.584Z,76.08
2022-11-09T20:09:11.554Z,76.17
2022-11-09T20:10:43.417Z,76.15
2022-11-09T20:12:33.881Z,76.16
2022-11-09T20:14:06.164Z,75.93
2022-11-09T20:15:38.305Z,75.75
2022-11-09T20:17:12.346Z,75.71
2022-11-09T20:18:44.169Z,75.84
2022-11-09T20:20:16.362Z,75.75
2022-11-09T20:21:49.410Z,76.08
2022-11-09T20:23:21.885Z,76.06
2022-11-09T20:24:53.904Z,76.23
2022-11-09T20:26:25.803Z,76.11
2022-11-09T20:27:57.788Z,76.16
2022-11-09T20:29:29.623Z,75.98
2022-11-09T20:31:01.572Z,76.01
2022-11-09T20:32:33.585Z,75.89
2022-11-09T20:34:05.964Z,75.85
2022-11-09T20:35:39.074Z,75.94
2022-11-09T20:37:13.605Z,76.02
2022-11-09T20:38:45.721Z,76.07
2022-11-09T20:40:17.596Z,75.95
2022-11-09T20:41:49.560Z,76.10
2022-11-09T20:43:22.130Z,76.23
2022-11-09T20:44:55.088Z,76.02
2022-11-09T20:46:30.001Z,76.18
2022-11-09T20:48:38.257Z,76.51
2022-11-09T20:49:56.655Z,77.08
2022-11-09T20:51:29.377Z,77.02
2022-11-09T20:53:01.213Z,76.96
2022-11-09T20:54:33.406Z,77.26
2022-11-09T20:56:05.419Z,77.20
2022-11-09T20:57:37.360Z,77.24
2022-11-09T20:59:09.331Z,77.27
2022-11-09T21:00:41.225Z,77.38
2022-11-09T21:02:16.231Z,77.30
2022-11-09T21:03:49.168Z,77.02
2022-11-09T21:05:21.834Z,76.85
2022-11-09T21:06:54.001Z,76.63
2022-11-09T21:08:25.908Z,76.68
2022-11-09T21:09:57.798Z,76.73
2022-11-09T21:11:35.924Z,76.69
2022-11-09T21:13:07.913Z,76.56
2022-11-09T21:14:39.797Z,76.43
2022-11-09T21:16:12.978Z,76.52
2022-11-09T21:17:44.942Z,76.64
2022-11-09T21:19:17.289Z,76.29
2022-11-09T21:20:49.259Z,76.13
2022-11-09T21:22:21.199Z,76.32
2022-11-09T21:24:11.740Z,76.56
2022-11-09T21:26:02.565Z,76.62
2022-11-09T21:27:52.881Z,76.69
2022-11-09T21:29:43.742Z,76.78
2022-11-09T21:31:15.849Z,76.94
2022-11-09T21:32:47.856Z,76.92
2022-11-09T21:34:19.731Z,76.95
2022-11-09T21:37:28.058Z,76.97
2022-11-09T21:39:01.519Z,77.34
2022-11-09T21:40:33.404Z,77.25
2022-11-09T21:42:05.363Z,77.50
2022-11-09T21:43:37.227Z,77.17
2022-11-09T21:45:09.203Z,76.85
2022-11-09T21:46:41.641Z,76.73
2022-11-09T21:48:13.528Z,76.73
2022-11-09T21:49:45.478Z,77.11
2022-11-09T21:51:17.356Z,77.17
2022-11-09T21:52:49.354Z,76.64
2022-11-09T21:54:21.448Z,76.88
2022-11-09T21:55:53.297Z,76.74
2022-11-09T21:57:25.164Z,76.90
2022-11-09T21:58:58.109Z,76.68
2022-11-09T22:00:30.040Z,76.80
2022-11-09T22:02:01.916Z,77.08
2022-11-09T22:03:34.470Z,77.03
2022-11-09T22:05:06.480Z,77.22
2022-11-09T22:06:39.311Z,77.30
2022-11-09T22:08:11.295Z,76.98
2022-11-09T22:10:08.202Z,76.75
2022-11-09T22:11:53.461Z,76.62